Time;durP1;ratioP1;P1;durP2;ratioP2;P2;SDS_P1;SDS_P2;PMS_P1;PMS_P2;Temp;Humidity;BMP_temperature;BMP_pressure;BME280_temperature;BME280_humidity;BME280_pressure;Samples;Min_cycle;Max_cycle;Signal;HPM_P1;HPM_P2
2022/10/02 00:00:15;;;;;;;7.93;2.10;;;;;13.50;96437.00;;;;8396554;28;20672;-69
2022/10/02 00:04:24;;;;;;;8.68;1.90;;;;;13.50;96438.00;;;;8398400;28;20245;-69
2022/10/02 00:08:58;;;;;;;4.78;1.83;;;;;13.50;96438.00;;;;8397948;28;20236;-70
2022/10/02 00:13:04;;;;;;;6.65;2.28;;;;;13.50;96447.00;;;;8397933;28;20582;-69
2022/10/02 00:17:15;;;;;;;8.93;2.15;;;;;13.50;96458.00;;;;8397971;28;20238;-70
2022/10/02 00:21:33;;;;;;;6.72;1.88;;;;;13.60;96457.00;;;;8397079;28;20236;-69
2022/10/02 00:25:42;;;;;;;6.93;2.65;;;;;13.60;96461.00;;;;8397426;28;20220;-69
2022/10/02 00:30:15;;;;;;;8.93;2.17;;;;;13.60;96473.00;;;;8398100;28;20672;-69
2022/10/02 00:34:28;;;;;;;9.15;1.90;;;;;13.70;96478.00;;;;8396646;28;20220;-70
2022/10/02 00:38:44;;;;;;;9.02;2.15;;;;;13.70;96487.00;;;;8397013;28;20227;-70
2022/10/02 00:43:03;;;;;;;10.27;2.05;;;;;13.70;96491.00;;;;8397008;28;20242;-70
2022/10/02 00:47:15;;;;;;;8.93;2.30;;;;;13.70;96493.00;;;;8396551;28;20580;-69
2022/10/02 00:51:33;;;;;;;5.78;2.17;;;;;13.70;96488.00;;;;8396001;28;20547;-70
2022/10/02 00:55:54;;;;;;;12.73;2.60;;;;;13.70;96503.00;;;;8396169;28;20223;-70
2022/10/02 01:00:18;;;;;;;8.77;2.47;;;;;13.70;96504.00;;;;8396351;28;20550;-70
2022/10/02 01:04:51;;;;;;;10.18;2.72;;;;;13.70;96493.00;;;;8397057;28;20262;-69
2022/10/02 01:09:28;;;;;;;11.35;2.10;;;;;13.70;96497.00;;;;8395737;28;20232;-69
2022/10/02 01:13:33;;;;;;;14.75;2.30;;;;;13.70;96486.00;;;;8395734;28;20216;-70
2022/10/02 01:18:07;;;;;;;12.50;2.53;;;;;13.70;96484.00;;;;8396176;28;20687;-70
2022/10/02 01:22:18;;;;;;;12.07;3.13;;;;;13.70;96498.00;;;;8395712;28;20530;-69
2022/10/02 01:26:47;;;;;;;13.90;2.80;;;;;13.80;96504.00;;;;8395304;28;20237;-69
2022/10/02 01:30:54;;;;;;;10.70;2.30;;;;;13.80;96514.00;;;;8395399;28;20539;-69
2022/10/02 01:35:26;;;;;;;12.88;2.83;;;;;13.80;96502.00;;;;8394809;28;20219;-69
2022/10/02 01:39:31;;;;;;;9.73;2.30;;;;;13.80;96502.00;;;;8395239;28;20227;-69
2022/10/02 01:44:07;;;;;;;15.90;3.75;;;;;13.80;96498.00;;;;8394706;28;20636;-70
2022/10/02 01:48:16;;;;;;;6.53;2.08;;;;;13.90;96494.00;;;;8394717;28;20549;-69
2022/10/02 01:52:38;;;;;;;5.72;2.10;;;;;13.80;96498.00;;;;8393745;28;20227;-69
2022/10/02 01:56:57;;;;;;;8.90;2.22;;;;;13.80;96487.00;;;;8394721;28;20652;-69
2022/10/02 02:01:38;;;;;;;9.63;2.28;;;;;13.70;96495.00;;;;8393451;28;20223;-69
2022/10/02 02:05:49;;;;;;;10.20;2.38;;;;;13.70;96500.00;;;;8384038;28;20223;-68
2022/10/02 02:10:20;;;;;;;7.10;2.20;;;;;13.70;96497.00;;;;8393202;28;20239;-68
2022/10/02 02:14:28;;;;;;;8.98;2.38;;;;;13.70;96507.00;;;;8393734;28;20227;-69
2022/10/02 02:19:04;;;;;;;8.32;2.20;;;;;13.70;96507.00;;;;8393683;28;20234;-70
2022/10/02 02:23:17;;;;;;;8.85;2.58;;;;;13.70;96500.00;;;;8393339;28;20284;-69
2022/10/02 02:27:25;;;;;;;6.15;2.42;;;;;13.70;96493.00;;;;8393643;28;20215;-69
2022/10/02 02:31:36;;;;;;;7.97;2.30;;;;;13.60;96493.00;;;;8393376;28;20628;-68
2022/10/02 02:36:07;;;;;;;8.98;2.47;;;;;13.50;96498.00;;;;8393783;28;20224;-68
2022/10/02 02:40:19;;;;;;;8.35;3.00;;;;;13.40;96500.00;;;;8393885;28;20215;-68
2022/10/02 02:44:50;;;;;;;7.47;2.50;;;;;13.40;96510.00;;;;8394355;28;20223;-69
2022/10/02 02:48:59;;;;;;;13.65;2.80;;;;;13.30;96508.00;;;;8393837;28;20290;-71
2022/10/02 02:53:34;;;;;;;15.68;3.00;;;;;13.30;96512.00;;;;8393347;28;20208;-72
2022/10/02 02:57:43;;;;;;;8.00;2.22;;;;;13.30;96507.00;;;;8393246;28;20228;-72
2022/10/02 03:02:14;;;;;;;8.95;2.65;;;;;13.20;96513.00;;;;8388712;28;20561;-73
2022/10/02 03:06:30;;;;;;;9.40;2.47;;;;;13.20;96523.00;;;;8393090;28;20268;-73
2022/10/02 03:11:05;;;;;;;10.55;2.47;;;;;13.20;96530.00;;;;8393549;28;20230;-79
2022/10/02 03:15:40;;;;;;;7.72;2.10;;;;;13.20;96521.00;;;;8399690;28;20603;-75
2022/10/02 03:19:48;;;;;;;5.22;1.98;;;;;13.30;96518.00;;;;8398890;28;20226;-75
2022/10/02 03:24:01;;;;;;;9.00;2.20;;;;;13.20;96525.00;;;;8400131;28;20227;-75
2022/10/02 03:28:31;;;;;;;5.57;1.85;;;;;13.20;96508.00;;;;8399063;28;20224;-73
2022/10/02 03:32:59;;;;;;;3.92;2.25;;;;;13.20;96514.00;;;;8399193;28;20538;-71
2022/10/02 03:37:31;;;;;;;9.00;3.03;;;;;13.20;96515.00;;;;8399803;28;20216;-70
2022/10/02 03:42:08;;;;;;;11.68;2.80;;;;;13.20;96520.00;;;;8399626;28;20219;-70
2022/10/02 03:46:12;;;;;;;13.73;2.60;;;;;13.20;96519.00;;;;8397891;28;20226;-72
2022/10/02 03:50:15;;;;;;;11.60;2.65;;;;;13.20;96531.00;;;;8399187;28;20276;-72
2022/10/02 03:54:54;;;;;;;4.18;2.00;;;;;13.20;96506.00;;;;8398232;28;20230;-71
2022/10/02 03:59:33;;;;;;;7.13;2.10;;;;;13.10;96531.00;;;;8399148;28;20565;-71
2022/10/02 04:03:45;;;;;;;6.82;2.20;;;;;13.10;96528.00;;;;8390975;28;20606;-69
2022/10/02 04:08:19;;;;;;;7.32;2.58;;;;;13.10;96516.00;;;;8397325;28;20218;-73
2022/10/02 04:12:52;;;;;;;5.50;1.80;;;;;13.10;96512.00;;;;8398585;28;20230;-71
2022/10/02 04:17:06;;;;;;;5.57;2.00;;;;;13.10;96520.00;;;;8398613;28;20216;-69
2022/10/02 04:21:40;;;;;;;6.97;1.90;;;;;13.10;96534.00;;;;8395647;28;20224;-69
2022/10/02 04:26:13;;;;;;;4.22;1.88;;;;;13.10;96520.00;;;;8394612;28;20227;-68
2022/10/02 04:30:18;;;;;;;8.23;1.85;;;;;13.10;96513.00;;;;8398243;28;20223;-68
2022/10/02 04:34:21;;;;;;;10.38;2.00;;;;;13.10;96518.00;;;;8397444;28;20223;-68
2022/10/02 04:39:12;;;;;;;5.53;2.00;;;;;13.00;96522.00;;;;8398246;28;20219;-68
2022/10/02 04:43:23;;;;;;;8.55;1.90;;;;;13.00;96525.00;;;;8397408;28;20220;-68
2022/10/02 04:48:10;;;;;;;6.80;1.60;;;;;12.90;96523.00;;;;8397590;28;20231;-67
2022/10/02 04:52:26;;;;;;;2.90;1.70;;;;;12.90;96515.00;;;;8395894;28;20215;-68
2022/10/02 04:56:51;;;;;;;5.30;1.70;;;;;12.90;96507.00;;;;8397353;28;20281;-68
2022/10/02 05:01:03;;;;;;;1.70;1.60;;;;;12.80;96518.00;;;;8396475;28;20624;-67
2022/10/02 05:05:20;;;;;;;4.22;1.52;;;;;12.80;96518.00;;;;8396612;28;20234;-68
2022/10/02 05:09:49;;;;;;;4.60;1.60;;;;;12.80;96519.00;;;;8396106;28;20223;-68
2022/10/02 05:14:11;;;;;;;5.22;4.47;;;;;12.80;96532.00;;;;8396361;28;20230;-68
2022/10/02 05:18:37;;;;;;;6.05;1.58;;;;;12.90;96526.00;;;;8395681;28;20234;-68
2022/10/02 05:23:11;;;;;;;6.80;1.90;;;;;12.90;96539.00;;;;8393468;28;20560;-67
2022/10/02 05:27:50;;;;;;;8.73;1.98;;;;;13.00;96549.00;;;;8395008;28;20226;-67
2022/10/02 05:32:32;;;;;;;5.13;2.10;;;;;13.00;96552.00;;;;8395589;28;20506;-68
2022/10/02 05:37:03;;;;;;;6.90;2.20;;;;;13.00;96550.00;;;;8395432;28;20222;-68
2022/10/02 05:41:14;;;;;;;8.93;2.80;;;;;13.10;96545.00;;;;8395582;28;20231;-69
2022/10/02 05:45:50;;;;;;;6.63;2.40;;;;;13.10;96552.00;;;;8395166;28;20222;-69
2022/10/02 05:50:26;;;;;;;12.52;2.72;;;;;13.20;96560.00;;;;8394779;28;20221;-69
2022/10/02 05:55:03;;;;;;;6.32;2.92;;;;;13.20;96558.00;;;;8395210;28;20219;-68
2022/10/02 05:59:34;;;;;;;9.50;3.47;;;;;13.20;96554.00;;;;8393881;28;20220;-69
2022/10/02 06:04:13;;;;;;;6.90;2.50;;;;;13.20;96548.00;;;;8394532;28;20232;-67
2022/10/02 06:08:51;;;;;;;10.15;3.03;;;;;13.20;96547.00;;;;8394085;28;20290;-67
2022/10/02 06:12:58;;;;;;;10.38;2.72;;;;;13.30;96554.00;;;;8394669;28;20219;-66
2022/10/02 06:17:31;;;;;;;7.60;2.72;;;;;13.30;96554.00;;;;8394580;28;20265;-68
2022/10/02 06:22:08;;;;;;;5.15;2.45;;;;;13.30;96549.00;;;;8394626;28;20591;-66
2022/10/02 06:31:42;;;;;;;13.55;3.00;;;;;13.40;96548.00;;;;8392007;28;20227;-66
2022/10/02 06:36:22;;;;;;;8.93;2.67;;;;;13.50;96545.00;;;;8390768;28;20559;-67
2022/10/02 06:40:53;;;;;;;9.70;2.80;;;;;13.50;96559.00;;;;8382395;28;20600;-66
2022/10/02 06:45:32;;;;;;;8.63;2.92;;;;;13.50;96543.00;;;;8387772;28;20241;-66
2022/10/02 06:49:49;;;;;;;9.27;2.67;;;;;13.50;96550.00;;;;8393954;28;20226;-67
2022/10/02 06:54:25;;;;;;;11.75;3.03;;;;;13.60;96550.00;;;;8389053;28;20280;-67
2022/10/02 06:58:57;;;;;;;5.72;3.10;;;;;13.70;96549.00;;;;8390850;28;20228;-69
2022/10/02 07:03:30;;;;;;;5.38;2.50;;;;;13.70;96549.00;;;;8393657;28;20238;-69
2022/10/02 07:08:02;;;;;;;6.10;2.63;;;;;13.80;96551.00;;;;8393245;28;20223;-69
2022/10/02 07:12:40;;;;;;;13.95;2.83;;;;;13.80;96544.00;;;;8393544;28;20663;-69
2022/10/02 07:16:57;;;;;;;11.02;3.00;;;;;13.80;96550.00;;;;8393575;28;20664;-70
2022/10/02 07:21:33;;;;;;;4.40;2.85;;;;;13.90;96544.00;;;;8387972;28;20211;-69
2022/10/02 07:25:57;;;;;;;8.75;3.03;;;;;14.00;96541.00;;;;8402136;28;20227;-70
2022/10/02 07:30:17;;;;;;;5.95;3.03;;;;;14.20;96538.00;;;;8393398;28;20223;-69
2022/10/02 07:34:56;;;;;;;6.30;2.83;;;;;14.20;96539.00;;;;8393324;28;20582;-70
2022/10/02 07:39:33;;;;;;;10.20;2.80;;;;;14.20;96533.00;;;;8392655;28;20227;-69
2022/10/02 07:43:47;;;;;;;9.73;2.67;;;;;14.30;96544.00;;;;8393007;28;20247;-69
2022/10/02 07:48:08;;;;;;;8.98;2.83;;;;;14.30;96550.00;;;;8389953;28;20242;-68
2022/10/02 07:52:39;;;;;;;16.73;2.95;;;;;14.30;96555.00;;;;8381613;28;20731;-70
2022/10/02 07:57:19;;;;;;;12.05;2.50;;;;;14.30;96564.00;;;;8395395;28;20595;-69
2022/10/02 08:01:44;;;;;;;8.25;2.85;;;;;14.40;96567.00;;;;8397503;28;20218;-70
2022/10/02 08:06:16;;;;;;;8.23;2.80;;;;;14.50;96559.00;;;;8397558;28;20215;-70
2022/10/02 08:10:53;;;;;;;4.63;2.40;;;;;14.40;96570.00;;;;8398460;28;20706;-70
2022/10/02 08:15:33;;;;;;;7.13;2.30;;;;;14.40;96572.00;;;;8397900;28;20222;-70
2022/10/02 08:19:42;;;;;;;7.30;2.15;;;;;14.70;96567.00;;;;8397513;28;20491;-69
2022/10/02 08:23:52;;;;;;;7.53;2.25;;;;;14.80;96580.00;;;;8398773;28;20668;-69
2022/10/02 08:28:01;;;;;;;7.88;2.25;;;;;14.80;96577.00;;;;8397253;28;20208;-69
2022/10/02 08:32:10;;;;;;;4.80;2.00;;;;;14.80;96576.00;;;;8397876;28;20224;-69
2022/10/02 08:36:47;;;;;;;5.90;1.92;;;;;14.80;96567.00;;;;8397982;28;20227;-68
2022/10/02 08:41:32;;;;;;;6.43;1.77;;;;;14.80;96574.00;;;;8396992;28;20224;-67
2022/10/02 08:46:24;;;;;;;8.55;2.38;;;;;14.90;96569.00;;;;8212271;28;20758;-67
2022/10/02 08:50:53;;;;;;;6.28;1.83;;;;;15.10;96568.00;;;;8227452;28;20234;-67
2022/10/02 08:55:26;;;;;;;8.43;2.38;;;;;15.20;96560.00;;;;8217180;28;20223;-66
2022/10/02 09:00:17;;;;;;;9.82;2.17;;;;;15.20;96560.00;;;;8229219;28;20274;-65
2022/10/02 09:04:59;;;;;;;6.38;1.80;;;;;15.30;96560.00;;;;8293460;28;20663;-66
2022/10/02 09:09:50;;;;;;;9.43;2.33;;;;;15.20;96555.00;;;;8282385;28;20245;-66
2022/10/02 09:19:40;;;;;;;11.35;1.83;;;;;15.00;96538.00;;;;8393598;28;20238;-69
2022/10/02 09:24:21;;;;;;;7.10;1.73;;;;;15.10;96525.00;;;;8394341;28;20223;-68
2022/10/02 09:29:14;;;;;;;10.18;2.03;;;;;15.20;96526.00;;;;8392385;28;20220;-68
2022/10/02 09:33:54;;;;;;;7.78;1.90;;;;;15.20;96529.00;;;;8394694;28;20307;-67
2022/10/02 09:38:36;;;;;;;7.30;1.80;;;;;15.20;96528.00;;;;8395368;28;20232;-68
2022/10/02 09:43:23;;;;;;;3.20;2.03;;;;;15.10;96524.00;;;;8396200;28;20216;-68
2022/10/02 09:53:34;;;;;;;3.50;1.58;;;;;15.20;96534.00;;;;8381268;28;20265;-69
2022/10/02 10:03:29;;;;;;;4.85;2.40;;;;;15.20;96517.00;;;;8374907;28;20230;-72
2022/10/02 10:08:03;;;;;;;6.13;3.88;;;;;15.20;96509.00;;;;8389414;28;20652;-72
2022/10/02 10:17:44;;;;;;;63.35;30.83;;;;;15.30;96514.00;;;;8393748;28;20215;-72
2022/10/02 10:33:50;;;;;;;14.85;9.23;;;;;15.30;96513.00;;;;8393742;28;20381;-76
2022/10/02 10:38:38;;;;;;;103.50;56.78;;;;;15.20;96514.00;;;;8393985;28;20652;-74
2022/10/02 10:43:18;;;;;;;25.67;18.27;;;;;15.20;96518.00;;;;8393202;28;20630;-75
2022/10/02 10:48:05;;;;;;;194.45;139.38;;;;;15.40;96521.00;;;;8393655;28;20306;-74
2022/10/02 10:52:33;;;;;;;294.95;154.32;;;;;15.50;96506.00;;;;8394327;28;20227;-73
2022/10/02 10:56:59;;;;;;;165.10;89.35;;;;;15.60;96499.00;;;;8393225;28;20220;-71
2022/10/02 11:01:36;;;;;;;247.18;146.98;;;;;15.80;96487.00;;;;8392776;28;20228;-71
2022/10/02 11:06:19;;;;;;;38.22;22.33;;;;;15.90;96471.00;;;;8393286;28;20212;-71
2022/10/02 11:10:51;;;;;;;223.45;139.98;;;;;15.70;96474.00;;;;8391961;28;20625;-71
2022/10/02 11:15:37;;;;;;;77.97;48.65;;;;;15.70;96475.00;;;;8389336;28;20231;-71
2022/10/02 11:20:01;;;;;;;43.53;25.52;;;;;15.50;96471.00;;;;8305537;28;20794;-70
2022/10/02 11:24:34;;;;;;;228.40;116.35;;;;;15.50;96473.00;;;;8379132;28;20361;-72
2022/10/02 11:29:22;;;;;;;93.57;53.97;;;;;15.30;96473.00;;;;8388846;28;20215;-74
2022/10/02 11:34:02;;;;;;;21.52;18.42;;;;;15.20;96462.00;;;;8397136;28;20227;-77
2022/10/02 11:38:37;;;;;;;10.15;8.23;;;;;15.30;96463.00;;;;8400860;28;20220;-77
2022/10/02 11:43:17;;;;;;;12.85;10.48;;;;;15.30;96458.00;;;;8398515;28;20228;-76
2022/10/02 11:47:53;;;;;;;4.53;1.80;;;;;15.20;96457.00;;;;8400728;28;20545;-84
2022/10/02 11:52:35;;;;;;;4.90;1.50;;;;;15.10;96461.00;;;;8402054;28;20653;-81
2022/10/02 11:57:04;;;;;;;7.70;3.00;;;;;15.10;96446.00;;;;8401698;28;20637;-81
2022/10/02 12:01:35;;;;;;;4.18;3.25;;;;;15.00;96436.00;;;;8401526;28;20234;-83
2022/10/02 12:06:14;;;;;;;22.23;14.00;;;;;15.00;96457.00;;;;8402701;28;20219;-80
2022/10/02 12:10:47;;;;;;;3.30;1.50;;;;;15.00;96461.00;;;;8400301;28;20250;-78
2022/10/02 12:15:23;;;;;;;2.38;1.23;;;;;15.00;96450.00;;;;8402035;28;20600;-81
2022/10/02 12:29:11;;;;;;;4.18;1.30;;;;;14.60;96453.00;;;;8389900;28;20216;-80
2022/10/02 12:33:45;;;;;;;3.55;1.30;;;;;14.60;96464.00;;;;8402205;28;20227;-81
2022/10/02 12:38:16;;;;;;;2.00;1.20;;;;;14.50;96467.00;;;;8400799;28;20593;-81
2022/10/02 12:43:09;;;;;;;4.72;1.40;;;;;14.40;96451.00;;;;8401657;28;20297;-83
2022/10/02 12:47:53;;;;;;;103.32;51.85;;;;;14.20;96458.00;;;;8294181;28;20229;-81
2022/10/02 12:52:42;;;;;;;5.72;4.43;;;;;14.10;96465.00;;;;8296951;28;20773;-78
2022/10/02 13:02:42;;;;;;;2.70;2.50;;;;;13.90;96463.00;;;;8398057;28;20273;-82
2022/10/02 13:07:40;;;;;;;7.20;2.80;;;;;13.90;96443.00;;;;8400917;28;20230;-82
2022/10/02 13:12:22;;;;;;;47.22;25.95;;;;;14.00;96436.00;;;;8399983;28;20679;-77
2022/10/02 13:17:05;;;;;;;28.05;18.65;;;;;14.10;96418.00;;;;8401899;28;20224;-86
2022/10/02 13:21:38;;;;;;;11.00;9.55;;;;;14.20;96422.00;;;;8398581;28;20277;-76
2022/10/02 13:26:15;;;;;;;33.80;30.75;;;;;14.20;96398.00;;;;8393632;28;20622;-77
2022/10/02 13:36:18;;;;;;;2.47;2.15;;;;;14.10;96437.00;;;;8396163;28;20222;-71
2022/10/02 13:40:29;;;;;;;3.33;3.10;;;;;14.20;96444.00;;;;8395848;28;20538;-74
2022/10/02 13:45:02;;;;;;;3.25;3.03;;;;;14.20;96465.00;;;;8397037;28;20270;-76
2022/10/02 13:49:45;;;;;;;1.85;1.10;;;;;14.10;96472.00;;;;8398896;28;20226;-78
2022/10/02 13:54:35;;;;;;;4.63;2.05;;;;;14.00;96433.00;;;;8399242;28;20283;-79
2022/10/02 14:04:36;;;;;;;1.20;0.90;;;;;13.80;96436.00;;;;8397942;28;20569;-76
2022/10/02 14:09:17;;;;;;;2.13;1.40;;;;;13.80;96427.00;;;;8397457;28;20212;-76
2022/10/02 14:13:59;;;;;;;2.10;1.17;;;;;13.80;96421.00;;;;8395790;28;20219;-75
2022/10/02 14:18:42;;;;;;;0.98;0.98;;;;;13.80;96403.00;;;;8396361;28;20589;-77
2022/10/02 14:23:11;;;;;;;1.40;0.98;;;;;13.90;96387.00;;;;8393395;28;20329;-75
2022/10/02 14:27:55;;;;;;;1.00;1.00;;;;;13.90;96382.00;;;;8395077;28;20227;-82
2022/10/02 14:32:33;;;;;;;1.10;1.10;;;;;14.00;96375.00;;;;8364463;28;20231;-80
2022/10/02 14:37:01;;;;;;;1.58;1.10;;;;;14.10;96389.00;;;;8362965;28;20304;-80
2022/10/02 14:41:46;;;;;;;168.77;93.25;;;;;14.20;96404.00;;;;8363316;28;20225;-80
2022/10/02 14:46:21;;;;;;;7.00;5.10;;;;;14.20;96418.00;;;;8362952;28;20244;-79
2022/10/02 14:50:51;;;;;;;2.08;1.98;;;;;14.20;96413.00;;;;8353522;28;20224;-77
2022/10/02 14:55:33;;;;;;;1.75;1.65;;;;;14.30;96413.00;;;;8363452;28;20225;-78
2022/10/02 15:00:25;;;;;;;4.13;1.33;;;;;14.30;96419.00;;;;8360414;28;20303;-77
2022/10/02 15:04:46;;;;;;;1.65;1.55;;;;;14.30;96413.00;;;;8237702;28;20299;-80
2022/10/02 15:09:10;;;;;;;3.85;2.60;;;;;14.20;96417.00;;;;8348597;28;20639;-80
2022/10/02 15:13:47;;;;;;;2.38;1.60;;;;;14.20;96408.00;;;;8364102;28;20220;-78
2022/10/02 15:18:23;;;;;;;1.10;1.10;;;;;14.20;96417.00;;;;8362151;28;20243;-78
2022/10/02 15:22:57;;;;;;;4.32;1.70;;;;;14.10;96398.00;;;;8356730;28;20721;-75
2022/10/02 15:27:38;;;;;;;1.55;1.30;;;;;14.00;96390.00;;;;8343650;28;20250;-77
2022/10/02 15:32:09;;;;;;;2.00;1.20;;;;;14.00;96389.00;;;;8377941;28;20311;-75
2022/10/02 15:36:52;;;;;;;1.05;1.05;;;;;13.90;96396.00;;;;8378618;28;20216;-73
2022/10/02 15:41:30;;;;;;;1.20;1.20;;;;;13.80;96410.00;;;;8365828;28;20259;-72
2022/10/02 15:46:04;;;;;;;1.83;1.45;;;;;13.80;96394.00;;;;8378751;28;20223;-71
2022/10/02 15:50:35;;;;;;;1.20;1.20;;;;;13.70;96403.00;;;;8365664;28;20221;-70
2022/10/02 15:55:07;;;;;;;1.27;1.27;;;;;13.70;96404.00;;;;8366212;28;20219;-70
2022/10/02 15:59:43;;;;;;;1.40;1.30;;;;;13.70;96411.00;;;;8397952;28;20216;-71
2022/10/02 16:04:13;;;;;;;1.80;1.50;;;;;13.60;96430.00;;;;8397888;28;20231;-72
2022/10/02 16:08:43;;;;;;;1.20;1.20;;;;;13.60;96431.00;;;;8396483;28;20337;-72
2022/10/02 16:13:25;;;;;;;1.40;1.30;;;;;13.50;96425.00;;;;8387595;28;20220;-72
2022/10/02 16:18:05;;;;;;;1.35;1.10;;;;;13.50;96423.00;;;;8398069;28;20224;-72
2022/10/02 16:22:52;;;;;;;1.20;1.20;;;;;13.50;96420.00;;;;8395656;28;20234;-73
2022/10/02 16:27:25;;;;;;;2.05;1.13;;;;;13.40;96415.00;;;;8397879;28;20219;-74
2022/10/02 16:32:03;;;;;;;1.63;1.20;;;;;13.40;96433.00;;;;8397144;28;20227;-75
2022/10/02 16:36:40;;;;;;;1.20;1.20;;;;;13.40;96443.00;;;;8398235;28;20279;-73
2022/10/02 16:41:17;;;;;;;2.65;1.35;;;;;13.40;96435.00;;;;8396646;28;20647;-74
2022/10/02 16:45:56;;;;;;;1.85;1.75;;;;;13.40;96429.00;;;;8396955;28;20664;-74
2022/10/02 16:50:26;;;;;;;1.50;1.27;;;;;13.30;96436.00;;;;8396182;28;20220;-74
2022/10/02 16:55:04;;;;;;;1.73;1.63;;;;;13.30;96429.00;;;;8396739;28;20798;-74
2022/10/02 16:59:42;;;;;;;1.27;1.27;;;;;13.30;96435.00;;;;8395712;28;20269;-74
2022/10/02 17:04:28;;;;;;;1.80;1.48;;;;;13.20;96448.00;;;;8396533;28;20228;-74
2022/10/02 17:08:39;;;;;;;2.45;1.90;;;;;13.20;96449.00;;;;8372857;28;20289;-74
2022/10/02 17:13:14;;;;;;;1.90;1.70;;;;;13.20;96470.00;;;;8385065;28;20227;-74
2022/10/02 17:17:53;;;;;;;1.80;1.65;;;;;13.30;96477.00;;;;8396133;28;20625;-75
2022/10/02 17:22:27;;;;;;;1.98;1.70;;;;;13.20;96504.00;;;;8395855;28;20620;-74
2022/10/02 17:27:06;;;;;;;2.08;1.90;;;;;13.20;96511.00;;;;8394862;28;20219;-73
2022/10/02 17:31:37;;;;;;;2.13;1.92;;;;;13.20;96527.00;;;;8377633;28;20323;-72
2022/10/02 17:36:17;;;;;;;2.65;2.08;;;;;13.20;96525.00;;;;8393933;28;20218;-71
2022/10/02 17:40:51;;;;;;;2.95;2.40;;;;;13.20;96529.00;;;;8391717;28;20224;-73
2022/10/02 17:45:31;;;;;;;2.58;2.38;;;;;13.20;96541.00;;;;8383083;28;20702;-74
2022/10/02 17:50:20;;;;;;;4.07;2.80;;;;;13.20;96551.00;;;;8395359;28;20229;-72
2022/10/02 17:59:55;;;;;;;3.10;2.80;;;;;13.20;96574.00;;;;8394440;28;20252;-76
2022/10/02 18:04:36;;;;;;;3.72;2.88;;;;;13.30;96590.00;;;;8391045;28;20657;-75
2022/10/02 18:09:10;;;;;;;3.50;3.00;;;;;13.30;96590.00;;;;8394055;28;20257;-74
2022/10/02 18:13:48;;;;;;;6.40;3.58;;;;;13.30;96587.00;;;;8393075;28;20231;-73
2022/10/02 18:18:20;;;;;;;81.88;27.50;;;;;13.40;96595.00;;;;8384739;28;20216;-73
2022/10/02 18:22:58;;;;;;;14.02;6.63;;;;;13.40;96588.00;;;;8394826;28;20618;-74
2022/10/02 18:27:36;;;;;;;4.55;3.13;;;;;13.50;96596.00;;;;8392478;28;20223;-74
2022/10/02 18:32:14;;;;;;;13.48;6.20;;;;;13.50;96606.00;;;;8385647;28;20219;-77
2022/10/02 18:36:55;;;;;;;9.43;5.85;;;;;13.50;96606.00;;;;8395210;28;20223;-77
2022/10/02 18:41:31;;;;;;;3.90;3.05;;;;;13.50;96613.00;;;;8395777;28;20223;-77
2022/10/02 18:46:06;;;;;;;2.60;2.40;;;;;13.50;96624.00;;;;8394449;28;20241;-79
2022/10/02 18:50:50;;;;;;;2.50;2.30;;;;;13.50;96632.00;;;;8394580;28;20249;-77
2022/10/02 18:55:24;;;;;;;6.43;2.80;;;;;13.50;96637.00;;;;8395395;28;20262;-77
2022/10/02 18:59:53;;;;;;;4.70;2.72;;;;;13.50;96637.00;;;;8394282;28;20226;-77
2022/10/02 19:04:32;;;;;;;3.35;2.85;;;;;13.40;96632.00;;;;8395398;28;20695;-79
2022/10/02 19:09:17;;;;;;;5.55;3.95;;;;;13.30;96644.00;;;;8395773;28;20208;-77
2022/10/02 19:13:38;;;;;;;4.05;3.58;;;;;13.30;96654.00;;;;8393782;28;20261;-77
2022/10/02 19:18:17;;;;;;;3.67;3.03;;;;;13.20;96646.00;;;;8394477;28;20238;-78
2022/10/02 19:22:49;;;;;;;5.07;3.40;;;;;13.20;96656.00;;;;8393936;28;20234;-78
2022/10/02 19:27:24;;;;;;;8.10;3.25;;;;;13.10;96655.00;;;;8395521;28;20221;-77
2022/10/02 19:32:09;;;;;;;5.20;3.30;;;;;13.10;96658.00;;;;8393510;28;20215;-79
2022/10/02 19:36:36;;;;;;;6.38;3.53;;;;;13.20;96650.00;;;;8392673;28;20238;-77
2022/10/02 19:41:14;;;;;;;8.05;4.03;;;;;13.20;96665.00;;;;8374935;28;20219;-77
2022/10/02 19:45:41;;;;;;;9.25;3.45;;;;;13.20;96679.00;;;;8393106;28;20243;-77
2022/10/02 19:50:22;;;;;;;5.10;3.63;;;;;13.30;96672.00;;;;8394694;28;20221;-78
2022/10/02 19:54:49;;;;;;;9.52;3.78;;;;;13.30;96684.00;;;;8397649;28;20272;-79
2022/10/02 19:59:26;;;;;;;4.57;3.70;;;;;13.30;96676.00;;;;8402236;28;20268;-78
2022/10/02 20:08:51;;;;;;;7.22;3.53;;;;;13.20;96685.00;;;;8401317;28;20306;-79
2022/10/02 20:13:23;;;;;;;8.65;4.18;;;;;13.20;96687.00;;;;8402386;28;20611;-79
2022/10/02 20:17:57;;;;;;;8.70;4.10;;;;;13.20;96689.00;;;;8400709;28;20564;-79
2022/10/02 20:22:05;;;;;;;9.73;4.40;;;;;13.20;96693.00;;;;8398348;28;20239;-81
2022/10/02 20:26:13;;;;;;;8.73;4.40;;;;;13.10;96696.00;;;;8395366;28;20254;-71
2022/10/02 20:30:19;;;;;;;10.38;4.80;;;;;13.00;96690.00;;;;8398532;28;20561;-71
2022/10/02 20:34:27;;;;;;;9.85;4.68;;;;;12.90;96700.00;;;;8397253;28;20276;-71
2022/10/02 20:38:36;;;;;;;10.30;5.22;;;;;12.80;96708.00;;;;8398659;28;20231;-71
2022/10/02 20:43:13;;;;;;;10.50;5.25;;;;;12.70;96700.00;;;;8398022;28;20223;-71
2022/10/02 20:48:09;;;;;;;9.15;5.43;;;;;12.60;96700.00;;;;8398059;28;20269;-71
2022/10/02 20:52:53;;;;;;;15.60;5.30;;;;;12.50;96717.00;;;;8396970;28;20245;-72
2022/10/02 20:57:42;;;;;;;13.95;5.97;;;;;12.60;96721.00;;;;8397822;28;20228;-71
2022/10/02 21:02:20;;;;;;;17.05;6.55;;;;;12.60;96724.00;;;;8396824;28;20231;-71
2022/10/02 21:07:03;;;;;;;16.23;6.40;;;;;12.60;96736.00;;;;8397147;28;20250;-71
2022/10/02 21:11:19;;;;;;;13.07;6.82;;;;;12.50;96734.00;;;;8386579;28;20222;-71
2022/10/02 21:16:00;;;;;;;17.05;7.40;;;;;12.40;96734.00;;;;8396589;28;20265;-71
2022/10/02 21:20:37;;;;;;;16.33;6.40;;;;;12.30;96747.00;;;;8344318;28;20246;-71
2022/10/02 21:25:23;;;;;;;15.00;7.28;;;;;12.20;96756.00;;;;8396085;28;20239;-71
2022/10/02 21:34:40;;;;;;;17.10;7.03;;;;;12.20;96769.00;;;;8395477;28;20230;-71
2022/10/02 21:39:33;;;;;;;22.45;8.23;;;;;12.20;96771.00;;;;8395804;28;20581;-72
2022/10/02 21:44:23;;;;;;;17.98;7.38;;;;;12.30;96772.00;;;;8395767;28;20309;-71
2022/10/02 21:49:05;;;;;;;25.35;8.57;;;;;12.30;96783.00;;;;8395908;28;20248;-71
2022/10/02 21:53:49;;;;;;;19.98;8.43;;;;;12.20;96788.00;;;;8395201;28;20220;-71
2022/10/02 21:58:19;;;;;;;18.27;7.63;;;;;12.10;96798.00;;;;8394762;28;20248;-71
2022/10/02 22:02:37;;;;;;;22.67;8.13;;;;;12.10;96800.00;;;;8395250;28;20230;-72
2022/10/02 22:06:46;;;;;;;20.98;7.35;;;;;12.20;96809.00;;;;8395003;28;20219;-71
2022/10/02 22:11:05;;;;;;;24.92;8.00;;;;;12.20;96810.00;;;;8395072;28;20223;-71
2022/10/02 22:15:18;;;;;;;20.50;6.95;;;;;12.20;96810.00;;;;8395354;28;20235;-71
2022/10/02 22:19:57;;;;;;;20.42;7.15;;;;;12.00;96803.00;;;;8382649;28;20233;-71
2022/10/02 22:24:33;;;;;;;16.00;6.97;;;;;11.80;96815.00;;;;8394489;28;20230;-71
2022/10/02 22:28:43;;;;;;;24.50;8.13;;;;;11.80;96820.00;;;;8386244;28;20233;-71
2022/10/02 22:33:12;;;;;;;20.80;7.38;;;;;11.80;96817.00;;;;8394342;28;20222;-71
2022/10/02 22:37:43;;;;;;;16.45;7.50;;;;;11.60;96817.00;;;;8394443;28;20281;-71
2022/10/02 22:41:54;;;;;;;22.77;8.23;;;;;11.60;96815.00;;;;8393736;28;20222;-71
2022/10/02 22:46:28;;;;;;;21.67;7.38;;;;;11.50;96805.00;;;;8394582;28;20222;-71
2022/10/02 22:50:37;;;;;;;16.70;7.20;;;;;11.50;96824.00;;;;8393885;28;20643;-71
2022/10/02 22:55:09;;;;;;;22.33;7.88;;;;;11.40;96826.00;;;;8393573;28;20273;-71
2022/10/02 22:59:18;;;;;;;20.73;7.90;;;;;11.40;96832.00;;;;8394134;28;20220;-71
2022/10/02 23:03:30;;;;;;;20.95;8.45;;;;;11.30;96832.00;;;;8393332;28;20232;-71
2022/10/02 23:08:02;;;;;;;24.00;8.93;;;;;11.20;96836.00;;;;8394645;28;20224;-71
2022/10/02 23:12:11;;;;;;;20.48;8.52;;;;;11.20;96843.00;;;;8393917;28;20659;-71
2022/10/02 23:16:23;;;;;;;19.20;7.95;;;;;11.20;96844.00;;;;8393886;28;20216;-71
2022/10/02 23:20:53;;;;;;;17.48;7.68;;;;;11.20;96840.00;;;;8393582;28;20216;-71
2022/10/02 23:25:04;;;;;;;17.92;7.80;;;;;11.20;96836.00;;;;8393273;28;20242;-71
2022/10/02 23:29:28;;;;;;;17.88;7.15;;;;;11.10;96849.00;;;;8395204;28;20226;-71
2022/10/02 23:33:42;;;;;;;26.70;7.78;;;;;11.00;96849.00;;;;8399979;28;20221;-71
2022/10/02 23:37:53;;;;;;;19.52;6.88;;;;;10.90;96848.00;;;;8400135;28;20224;-71
2022/10/02 23:41:59;;;;;;;21.05;7.80;;;;;10.80;96851.00;;;;8399761;28;20221;-71